Time;durP1;ratioP1;P1;durP2;ratioP2;P2;SDS_P1;SDS_P2;PMS_P1;PMS_P2;Temp;Humidity;BMP_temperature;BMP_pressure;BME280_temperature;BME280_humidity;BME280_pressure;Samples;Min_cycle;Max_cycle;Signal;HPM_P1;HPM_P2
2023/08/19 00:01:13;;;;;;;17.60;10.27;;;;;;;22.73;89.99;101268.25;4994744;28;96775;-27
2023/08/19 00:03:39;;;;;;;19.73;10.65;;;;;;;22.70;90.57;101263.06;4994183;28;97343;-27
2023/08/19 00:06:11;;;;;;;18.38;10.35;;;;;;;22.74;89.97;101270.00;4995377;28;97834;-26
2023/08/19 00:08:37;;;;;;;17.38;10.20;;;;;;;22.71;90.70;101264.78;4995665;28;96559;-27
2023/08/19 00:11:03;;;;;;;15.77;9.35;;;;;;;22.71;90.17;101255.63;4997165;28;96831;-26
2023/08/19 00:13:30;;;;;;;17.30;10.43;;;;;;;22.72;90.10;101266.53;4995317;28;100944;-27
2023/08/19 00:15:56;;;;;;;18.25;9.32;;;;;;;22.74;90.08;101258.06;4995795;28;101497;-26
2023/08/19 00:18:22;;;;;;;21.33;9.70;;;;;;;22.71;90.27;101247.34;4996157;28;96529;-27
2023/08/19 00:20:49;;;;;;;16.75;9.70;;;;;;;22.67;89.77;101249.59;4997523;28;96776;-27
2023/08/19 00:23:16;;;;;;;16.45;9.65;;;;;;;22.70;89.71;101249.25;4995808;28;99228;-26
2023/08/19 00:25:42;;;;;;;21.02;10.10;;;;;;;22.65;90.49;101249.75;4996051;28;101016;-27
2023/08/19 00:28:07;;;;;;;16.23;9.25;;;;;;;22.64;91.56;101247.13;4997560;28;96594;-26
2023/08/19 00:30:33;;;;;;;14.40;9.40;;;;;;;22.65;91.93;101246.13;4997451;28;96925;-26
2023/08/19 00:32:59;;;;;;;15.05;9.00;;;;;;;22.63;91.60;101234.38;4996683;28;97919;-26
2023/08/19 00:35:24;;;;;;;16.55;8.98;;;;;;;22.64;92.15;101236.97;4997304;28;97106;-27
2023/08/19 00:37:50;;;;;;;17.98;9.07;;;;;;;22.62;93.18;101229.84;4997095;28;96825;-26
2023/08/19 00:40:15;;;;;;;18.02;9.45;;;;;;;22.64;91.90;101230.56;4997106;28;96768;-27
2023/08/19 00:42:41;;;;;;;13.63;8.27;;;;;;;22.66;92.51;101231.28;4996978;28;98053;-27
2023/08/19 00:45:07;;;;;;;14.52;8.70;;;;;;;22.65;92.11;101227.66;4996912;28;98327;-28
2023/08/19 00:47:33;;;;;;;15.50;8.15;;;;;;;22.66;92.07;101220.22;4995676;28;96719;-28
2023/08/19 00:49:58;;;;;;;15.48;9.20;;;;;;;22.69;91.74;101219.88;4997492;28;96762;-26
2023/08/19 00:52:24;;;;;;;11.93;8.05;;;;;;;22.71;91.62;101214.22;4996691;28;98138;-26
2023/08/19 00:54:50;;;;;;;21.73;9.43;;;;;;;22.73;92.50;101224.06;4995040;28;100981;-26
2023/08/19 00:57:16;;;;;;;15.90;8.27;;;;;;;22.71;92.49;101211.44;4994945;28;96664;-26
2023/08/19 00:59:42;;;;;;;15.15;8.85;;;;;;;22.73;92.61;101213.00;4996772;28;96794;-26
2023/08/19 01:02:07;;;;;;;13.63;8.20;;;;;;;22.69;92.48;101203.31;4996518;28;97867;-27
2023/08/19 01:04:32;;;;;;;16.42;9.15;;;;;;;22.72;92.85;101214.06;4996653;28;97176;-26
2023/08/19 01:06:58;;;;;;;17.52;8.68;;;;;;;22.76;92.37;101217.34;4996970;28;96634;-27
2023/08/19 01:09:23;;;;;;;14.13;8.38;;;;;;;22.75;93.07;101216.47;4996651;28;96478;-26
2023/08/19 01:11:57;;;;;;;13.85;8.57;;;;;;;22.72;92.11;101210.44;4996213;28;97311;-28
2023/08/19 01:14:35;;;;;;;14.13;8.45;;;;;;;22.78;92.77;101216.13;4996186;28;98834;-26
2023/08/19 01:17:03;;;;;;;14.35;8.45;;;;;;;22.74;93.12;101211.09;4995684;28;96505;-26
2023/08/19 01:19:30;;;;;;;15.43;8.05;;;;;;;22.74;92.38;101203.72;4996475;28;96798;-26
2023/08/19 01:22:04;;;;;;;15.85;8.15;;;;;;;22.78;92.57;101204.22;4994120;28;100852;-26
2023/08/19 01:24:38;;;;;;;15.57;9.60;;;;;;;22.77;92.92;101214.41;4994655;28;100962;-27
2023/08/19 01:27:21;;;;;;;15.30;8.65;;;;;;;22.79;93.00;101203.22;4995134;28;96616;-28
2023/08/19 01:29:47;;;;;;;15.88;8.82;;;;;;;22.75;93.35;101196.28;4996641;28;96576;-26
2023/08/19 01:32:13;;;;;;;16.17;9.20;;;;;;;22.74;92.43;101200.06;4995993;28;98061;-27
2023/08/19 01:34:38;;;;;;;14.30;8.43;;;;;;;22.76;92.85;101201.63;4994719;28;101206;-27
2023/08/19 01:37:07;;;;;;;13.98;8.32;;;;;;;22.78;92.54;101205.09;4996215;28;96620;-28
2023/08/19 01:39:36;;;;;;;14.45;8.35;;;;;;;22.76;92.19;101196.09;4995138;28;97014;-27
2023/08/19 01:42:03;;;;;;;13.85;8.43;;;;;;;22.79;91.93;101200.47;4994621;28;100844;-26
2023/08/19 01:44:28;;;;;;;15.18;8.80;;;;;;;22.79;92.29;101200.47;4996320;28;97356;-28
2023/08/19 01:46:54;;;;;;;13.90;8.02;;;;;;;22.79;92.07;101194.94;4995491;28;96508;-27
2023/08/19 01:49:19;;;;;;;15.57;8.27;;;;;;;22.77;92.45;101202.50;4995934;28;96826;-26
2023/08/19 01:51:44;;;;;;;14.05;7.97;;;;;;;22.71;92.61;101190.22;4995811;28;97189;-26
2023/08/19 01:54:10;;;;;;;14.48;8.45;;;;;;;22.75;93.33;101199.03;4995889;28;97424;-26
2023/08/19 01:56:36;;;;;;;13.45;8.77;;;;;;;22.73;92.75;101192.81;4996225;28;96460;-27
2023/08/19 01:59:02;;;;;;;17.13;8.43;;;;;;;22.75;93.70;101197.16;4994510;28;96803;-27
2023/08/19 02:01:27;;;;;;;13.93;9.13;;;;;;;22.76;92.76;101189.72;4995538;28;98012;-27
2023/08/19 02:03:52;;;;;;;14.18;8.65;;;;;;;22.73;92.68;101190.91;4996082;28;97762;-26
2023/08/19 02:06:18;;;;;;;15.63;9.18;;;;;;;22.79;92.85;101183.88;4995968;28;96682;-26
2023/08/19 02:08:43;;;;;;;14.00;8.85;;;;;;;22.79;92.86;101187.50;4996079;28;96759;-27
2023/08/19 02:11:08;;;;;;;14.60;8.57;;;;;;;22.76;92.33;101165.72;4994897;28;98071;-26
2023/08/19 02:13:34;;;;;;;14.82;8.60;;;;;;;22.78;92.59;101174.69;4994845;28;97288;-26
2023/08/19 02:15:59;;;;;;;13.65;8.73;;;;;;;22.79;92.75;101170.06;4995928;28;96506;-27
2023/08/19 02:18:25;;;;;;;13.25;8.20;;;;;;;22.74;93.47;101162.28;4995580;28;96848;-26
2023/08/19 02:20:51;;;;;;;16.55;8.93;;;;;;;22.75;93.07;101154.84;4993862;28;101001;-26
2023/08/19 02:23:16;;;;;;;14.68;7.82;;;;;;;22.75;92.96;101166.75;4995238;28;99179;-27
2023/08/19 02:25:42;;;;;;;16.02;8.82;;;;;;;22.78;92.44;101166.41;4995530;28;96494;-26
2023/08/19 02:28:07;;;;;;;16.05;9.10;;;;;;;22.77;92.77;101155.56;4995676;28;96794;-27
2023/08/19 02:30:33;;;;;;;13.40;8.65;;;;;;;22.77;92.56;101150.88;4995296;28;97975;-27
2023/08/19 02:33:04;;;;;;;12.90;8.35;;;;;;;22.80;92.81;101157.97;4995015;28;97867;-27
2023/08/19 02:35:30;;;;;;;12.57;7.75;;;;;;;22.77;93.11;101148.13;4993680;28;96677;-27
2023/08/19 02:37:55;;;;;;;15.00;8.63;;;;;;;22.74;93.12;101151.22;4995712;28;96763;-27
2023/08/19 02:40:20;;;;;;;13.38;8.20;;;;;;;22.77;93.03;101158.31;4994956;28;99224;-26
2023/08/19 02:42:46;;;;;;;14.20;8.13;;;;;;;22.79;92.60;101159.88;4995041;28;97908;-26
2023/08/19 02:45:11;;;;;;;13.25;8.23;;;;;;;22.76;92.62;101153.81;4995218;28;96625;-26
2023/08/19 02:47:37;;;;;;;13.73;8.52;;;;;;;22.79;92.36;101161.78;4995001;28;96830;-27
2023/08/19 02:50:02;;;;;;;14.20;8.35;;;;;;;22.79;92.97;101159.88;4995144;28;97893;-27
2023/08/19 02:52:27;;;;;;;15.35;8.00;;;;;;;22.78;92.87;101151.75;4995270;28;97887;-27
2023/08/19 02:54:53;;;;;;;12.35;7.60;;;;;;;22.77;93.19;101141.75;4995269;28;96611;-27
2023/08/19 02:57:18;;;;;;;15.73;8.15;;;;;;;22.79;92.81;101145.22;4995200;28;96767;-26
2023/08/19 02:59:43;;;;;;;15.32;8.25;;;;;;;22.77;92.80;101150.88;4994452;28;97400;-27
2023/08/19 03:02:09;;;;;;;13.93;8.52;;;;;;;22.76;92.80;101151.91;4995149;28;97128;-27
2023/08/19 03:04:34;;;;;;;11.80;7.85;;;;;;;22.79;92.91;101148.84;4995490;28;96640;-27
2023/08/19 03:06:59;;;;;;;14.10;8.07;;;;;;;22.79;93.15;101140.53;4995278;28;96577;-26
2023/08/19 03:09:25;;;;;;;14.90;7.68;;;;;;;22.76;94.08;101134.47;4994243;28;98990;-27
2023/08/19 03:11:50;;;;;;;14.95;7.95;;;;;;;22.71;94.19;101121.16;4994579;28;97231;-26
2023/08/19 03:14:15;;;;;;;13.15;7.88;;;;;;;22.72;94.79;101125.66;4994444;28;96860;-27
2023/08/19 03:16:41;;;;;;;13.35;8.45;;;;;;;22.73;94.45;101124.63;4995300;28;96743;-26
2023/08/19 03:19:06;;;;;;;14.52;7.88;;;;;;;22.71;94.96;101123.94;4994792;28;97951;-27
2023/08/19 03:21:31;;;;;;;10.98;7.45;;;;;;;22.72;94.81;101138.63;4994582;28;96974;-27
2023/08/19 03:23:57;;;;;;;14.45;8.80;;;;;;;22.72;94.42;101150.53;4994413;28;96548;-27
2023/08/19 03:26:22;;;;;;;19.88;8.40;;;;;;;22.73;94.32;101152.25;4994794;28;96775;-28
2023/08/19 03:28:47;;;;;;;12.88;7.80;;;;;;;22.73;94.78;101149.50;4994184;28;99361;-27
2023/08/19 03:31:13;;;;;;;12.48;8.18;;;;;;;22.66;94.73;101126.31;4994243;28;99161;-27
2023/08/19 03:33:39;;;;;;;15.10;8.32;;;;;;;22.71;94.64;101143.25;4994835;28;96553;-26
2023/08/19 03:36:05;;;;;;;14.93;8.25;;;;;;;22.66;94.65;101132.72;4994667;28;96774;-27
2023/08/19 03:38:30;;;;;;;18.45;8.40;;;;;;;22.64;95.18;101137.56;4992515;28;101332;-27
2023/08/19 03:40:55;;;;;;;12.82;7.97;;;;;;;22.67;94.25;101139.97;4995466;28;99148;-27
2023/08/19 03:43:21;;;;;;;14.05;7.43;;;;;;;22.65;94.63;101138.41;4997988;28;96587;-27
2023/08/19 03:45:46;;;;;;;13.50;8.13;;;;;;;22.65;94.17;101144.81;4997902;28;98139;-26
2023/08/19 03:48:12;;;;;;;14.77;8.45;;;;;;;22.63;95.14;101157.03;4997398;28;97931;-26
2023/08/19 03:50:37;;;;;;;13.02;7.15;;;;;;;22.67;94.75;101155.69;4997552;28;98997;-26
2023/08/19 03:53:03;;;;;;;12.15;6.75;;;;;;;22.67;94.89;101161.22;4997922;28;96758;-27
2023/08/19 03:55:30;;;;;;;12.95;7.20;;;;;;;22.67;95.08;101164.84;4997972;28;96795;-26
2023/08/19 03:57:55;;;;;;;13.23;7.20;;;;;;;22.65;94.32;101161.38;4996088;28;100871;-27
2023/08/19 04:00:21;;;;;;;15.98;8.25;;;;;;;22.68;94.38;101172.06;4997316;28;97825;-26
2023/08/19 04:02:46;;;;;;;12.68;7.28;;;;;;;22.68;94.83;101161.03;4997908;28;96612;-26
2023/08/19 04:05:12;;;;;;;13.07;7.85;;;;;;;22.68;94.76;101154.66;4998252;28;96768;-27
2023/08/19 04:07:38;;;;;;;10.05;6.93;;;;;;;22.72;94.31;101167.09;4995907;28;100837;-26
2023/08/19 04:10:04;;;;;;;10.20;6.75;;;;;;;22.71;94.26;101164.50;4997434;28;98025;-27
2023/08/19 04:12:29;;;;;;;11.50;6.78;;;;;;;22.70;94.58;101163.63;4996890;28;96712;-26
2023/08/19 04:14:55;;;;;;;12.65;6.88;;;;;;;22.74;94.59;101155.88;4996695;28;96846;-26
2023/08/19 04:17:20;;;;;;;12.75;7.50;;;;;;;22.74;94.84;101154.00;4997044;28;99340;-26
2023/08/19 04:19:46;;;;;;;11.30;7.38;;;;;;;22.72;94.43;101153.28;4997282;28;97323;-26
2023/08/19 04:22:13;;;;;;;14.20;7.55;;;;;;;22.71;94.81;101147.94;4997366;28;96681;-28
2023/08/19 04:24:38;;;;;;;10.88;6.88;;;;;;;22.73;94.50;101152.25;4996106;28;96751;-28
2023/08/19 04:27:04;;;;;;;10.60;7.40;;;;;;;22.72;94.27;101145.00;4997189;28;97920;-26
2023/08/19 04:29:32;;;;;;;11.50;6.47;;;;;;;22.69;94.32;101148.97;4997197;28;99101;-27
2023/08/19 04:31:58;;;;;;;13.43;6.90;;;;;;;22.73;94.10;101152.25;4995937;28;96733;-28
2023/08/19 04:34:24;;;;;;;10.45;6.82;;;;;;;22.69;94.07;101137.03;4997309;28;96782;-27
2023/08/19 04:36:49;;;;;;;11.00;6.63;;;;;;;22.72;94.35;101146.91;4996569;28;97983;-26
2023/08/19 04:39:14;;;;;;;14.40;6.85;;;;;;;22.72;94.11;101146.91;4996870;28;97810;-27
2023/08/19 04:41:40;;;;;;;10.57;6.80;;;;;;;22.72;93.86;101150.53;4997186;28;96642;-26
2023/08/19 04:44:05;;;;;;;10.45;6.38;;;;;;;22.71;94.02;101142.41;4996987;28;96928;-26
2023/08/19 04:46:31;;;;;;;13.18;6.50;;;;;;;22.73;94.09;101143.97;4997031;28;97398;-27
2023/08/19 04:48:56;;;;;;;10.57;5.90;;;;;;;22.75;93.87;101150.19;4995426;28;101351;-26
2023/08/19 04:51:22;;;;;;;9.90;6.28;;;;;;;22.74;94.06;101151.22;4997002;28;96693;-27
2023/08/19 04:53:47;;;;;;;9.13;6.00;;;;;;;22.77;93.71;101169.38;4997257;28;96948;-27
2023/08/19 04:56:13;;;;;;;10.48;6.43;;;;;;;22.69;93.88;101151.72;4995822;28;97319;-26
2023/08/19 04:58:39;;;;;;;9.80;5.82;;;;;;;22.74;93.97;101158.63;4996260;28;99355;-26
2023/08/19 05:01:04;;;;;;;10.00;5.57;;;;;;;22.75;93.45;101165.91;4996554;28;96603;-27
2023/08/19 05:03:30;;;;;;;8.68;5.60;;;;;;;22.77;94.18;101164.69;4997146;28;96500;-26
2023/08/19 05:05:55;;;;;;;9.70;5.93;;;;;;;22.77;94.12;101164.69;4996379;28;99727;-26
2023/08/19 05:08:20;;;;;;;8.65;5.78;;;;;;;22.74;93.71;101158.63;4996694;28;97241;-27
2023/08/19 05:10:46;;;;;;;8.77;5.45;;;;;;;22.76;93.94;101165.72;4996421;28;96542;-26
2023/08/19 05:13:11;;;;;;;10.32;5.85;;;;;;;22.73;94.34;101168.81;4996173;28;96815;-26
2023/08/19 05:15:38;;;;;;;8.85;5.28;;;;;;;22.73;94.47;101162.44;4996336;28;99326;-27
2023/08/19 05:18:04;;;;;;;9.48;5.75;;;;;;;22.72;94.57;101152.44;4995265;28;100636;-27
2023/08/19 05:20:29;;;;;;;11.90;6.00;;;;;;;22.74;94.37;101167.81;4995169;28;96811;-27
2023/08/19 05:22:55;;;;;;;9.93;5.75;;;;;;;22.74;94.12;101178.84;4996658;28;96812;-27
2023/08/19 05:25:20;;;;;;;11.02;5.60;;;;;;;22.77;94.14;101166.59;4995850;28;97434;-28
2023/08/19 05:27:45;;;;;;;8.52;5.32;;;;;;;22.75;93.97;101177.81;4995805;28;99126;-26
2023/08/19 05:30:11;;;;;;;9.30;5.88;;;;;;;22.73;94.41;101163.28;4996636;28;96479;-26
2023/08/19 05:32:37;;;;;;;10.10;6.10;;;;;;;22.76;94.03;101185.03;4996603;28;96755;-26
2023/08/19 05:35:03;;;;;;;8.40;5.70;;;;;;;22.74;94.39;101175.19;4994657;28;101102;-26
2023/08/19 05:37:29;;;;;;;10.30;5.80;;;;;;;22.73;94.60;101185.38;4994640;28;99216;-27
2023/08/19 05:39:54;;;;;;;8.40;5.47;;;;;;;22.76;94.00;101185.03;4996564;28;96630;-26
2023/08/19 05:42:19;;;;;;;7.78;5.72;;;;;;;22.74;94.39;101183.50;4996472;28;96903;-26
2023/08/19 05:44:45;;;;;;;8.73;5.57;;;;;;;22.75;94.27;101185.25;4995738;28;99368;-27
2023/08/19 05:47:10;;;;;;;11.15;5.32;;;;;;;22.74;94.59;101184.38;4995802;28;99230;-26
2023/08/19 05:49:35;;;;;;;8.95;5.90;;;;;;;22.81;94.43;101199.25;4995633;28;96520;-26
2023/08/19 05:52:01;;;;;;;9.43;5.65;;;;;;;22.82;94.36;101200.97;4996092;28;96865;-26
2023/08/19 05:54:26;;;;;;;8.85;5.28;;;;;;;22.86;94.56;101210.66;4995824;28;97536;-27
2023/08/19 05:56:52;;;;;;;9.15;5.78;;;;;;;22.92;93.85;101217.41;4995720;28;97702;-26
2023/08/19 05:59:17;;;;;;;10.05;5.50;;;;;;;22.96;94.11;101213.28;4995890;28;96448;-27
2023/08/19 06:01:43;;;;;;;11.55;5.88;;;;;;;22.99;94.26;101212.13;4996199;28;96708;-26
2023/08/19 06:04:08;;;;;;;12.10;5.93;;;;;;;23.04;94.15;101207.81;4994737;28;99019;-27
2023/08/19 06:06:33;;;;;;;10.68;6.53;;;;;;;23.14;94.22;101213.19;4995985;28;97824;-26
2023/08/19 06:08:59;;;;;;;11.02;5.68;;;;;;;23.22;93.69;101213.25;4995953;28;96554;-28
2023/08/19 06:11:24;;;;;;;9.07;5.95;;;;;;;23.25;93.26;101195.47;4995594;28;96793;-26
2023/08/19 06:13:50;;;;;;;9.20;5.78;;;;;;;23.29;93.03;101199.63;4994382;28;99507;-27
2023/08/19 06:16:15;;;;;;;9.32;5.70;;;;;;;23.33;92.65;101201.00;4995499;28;97757;-26
2023/08/19 06:18:41;;;;;;;11.13;6.00;;;;;;;23.27;92.78;101209.97;4995936;28;96501;-26
2023/08/19 06:21:06;;;;;;;10.70;6.50;;;;;;;23.31;93.57;101228.81;4995730;28;96751;-26
2023/08/19 06:23:32;;;;;;;8.07;5.65;;;;;;;23.27;93.13;101227.44;4995577;28;97344;-26
2023/08/19 06:25:58;;;;;;;9.77;5.47;;;;;;;23.28;93.40;101231.91;4995439;28;97775;-28
2023/08/19 06:28:23;;;;;;;10.68;5.45;;;;;;;23.32;92.62;101230.53;4995491;28;96632;-26
2023/08/19 06:30:50;;;;;;;11.70;5.78;;;;;;;23.30;93.15;101221.56;4996015;28;96789;-26
2023/08/19 06:33:16;;;;;;;8.60;4.88;;;;;;;23.29;93.17;101221.75;4993634;28;100872;-26
2023/08/19 06:35:48;;;;;;;8.40;5.55;;;;;;;23.34;92.92;101227.63;4995006;28;99043;-26
2023/08/19 06:38:20;;;;;;;;;;;;;;;23.37;92.97;101231.94;4995439;28;96478;-26
2023/08/19 06:41:00;;;;;;;7.03;4.88;;;;;;;23.37;92.72;101235.56;4995430;28;96878;-27
2023/08/19 06:43:26;;;;;;;9.38;5.35;;;;;;;23.34;92.79;101226.75;4995249;28;97444;-26
2023/08/19 06:45:55;;;;;;;8.57;5.30;;;;;;;23.35;92.78;101229.34;4993419;28;100785;-27
2023/08/19 06:48:23;;;;;;;8.25;5.35;;;;;;;23.39;93.22;101241.81;4995198;28;96787;-27
2023/08/19 06:50:50;;;;;;;8.18;5.15;;;;;;;23.37;93.59;101248.53;4993818;28;96932;-27
2023/08/19 06:53:16;;;;;;;7.72;5.05;;;;;;;23.34;93.21;101246.97;4993252;28;100962;-26
2023/08/19 06:56:07;;;;;;;8.50;6.03;;;;;;;23.34;93.78;101248.88;4993692;28;100796;-27
2023/08/19 06:58:37;;;;;;;10.60;5.28;;;;;;;23.39;93.07;101252.00;4994235;28;96746;-27
2023/08/19 07:01:09;;;;;;;7.88;5.32;;;;;;;23.46;93.60;101272.41;4993748;28;96719;-27
2023/08/19 07:03:36;;;;;;;9.65;5.60;;;;;;;23.44;93.99;101266.19;4992648;28;101131;-27
2023/08/19 07:06:03;;;;;;;7.97;5.43;;;;;;;23.49;94.07;101266.53;4993231;28;101322;-27
2023/08/19 07:08:30;;;;;;;9.20;6.00;;;;;;;23.50;93.23;101271.03;4993848;28;96641;-26
2023/08/19 07:10:58;;;;;;;7.93;5.03;;;;;;;23.54;93.73;101270.50;4993232;28;96938;-27
2023/08/19 07:13:23;;;;;;;8.98;4.82;;;;;;;23.57;93.89;101282.28;4992701;28;102577;-27
2023/08/19 07:15:54;;;;;;;8.30;5.00;;;;;;;23.63;93.62;101281.63;4994688;28;99017;-27
2023/08/19 07:18:21;;;;;;;8.97;5.40;;;;;;;23.68;93.74;101290.25;4993282;28;96734;-26
2023/08/19 07:20:51;;;;;;;9.48;5.13;;;;;;;23.71;93.53;101276.94;4993788;28;96846;-26
2023/08/19 07:23:18;;;;;;;8.77;4.75;;;;;;;23.77;93.01;101285.66;4993201;28;100854;-27
2023/08/19 07:25:43;;;;;;;8.52;4.80;;;;;;;23.82;92.42;101272.19;4994200;28;98971;-27
2023/08/19 07:28:13;;;;;;;7.82;4.88;;;;;;;23.87;92.48;101284.44;4994414;28;96690;-26
2023/08/19 07:30:39;;;;;;;7.57;4.63;;;;;;;23.91;93.04;101280.31;4993273;28;97297;-27
2023/08/19 07:33:04;;;;;;;9.80;4.78;;;;;;;23.92;92.87;101281.16;4994126;28;99168;-27
2023/08/19 07:35:30;;;;;;;7.57;4.30;;;;;;;23.89;92.41;101264.91;4994213;28;99055;-26
2023/08/19 07:37:55;;;;;;;7.88;4.95;;;;;;;23.93;92.61;101272.72;4994462;28;96528;-26
2023/08/19 07:40:21;;;;;;;7.63;4.57;;;;;;;23.93;92.34;101282.88;4994673;28;96804;-26
2023/08/19 07:42:46;;;;;;;11.27;4.43;;;;;;;23.97;92.74;101306.44;4994317;28;97970;-26
2023/08/19 07:45:11;;;;;;;10.10;5.05;;;;;;;23.99;93.11;101329.25;4994618;28;97398;-28
2023/08/19 07:47:37;;;;;;;8.15;4.70;;;;;;;23.99;93.31;101326.50;4994497;28;96628;-26
2023/08/19 07:50:02;;;;;;;8.52;4.10;;;;;;;23.99;92.97;101311.81;4994699;28;96595;-26
2023/08/19 07:52:28;;;;;;;7.63;4.35;;;;;;;24.03;93.13;101322.34;4993449;28;98759;-27
2023/08/19 07:54:53;;;;;;;8.05;4.45;;;;;;;24.09;93.50;101327.19;4994433;28;97718;-27
2023/08/19 07:57:19;;;;;;;6.78;4.38;;;;;;;24.11;92.84;101322.34;4994629;28;96439;-27
2023/08/19 07:59:44;;;;;;;8.07;4.20;;;;;;;24.16;92.86;101333.78;4992921;28;96665;-26
2023/08/19 08:02:10;;;;;;;6.18;4.47;;;;;;;24.15;92.67;101337.59;4993968;28;97936;-27
2023/08/19 08:04:35;;;;;;;7.68;4.55;;;;;;;24.22;92.88;101353.50;4993840;28;99100;-26
2023/08/19 08:07:00;;;;;;;8.88;4.70;;;;;;;24.20;92.50;101336.22;4994079;28;96594;-26
2023/08/19 08:09:26;;;;;;;6.85;4.82;;;;;;;24.19;92.42;101346.41;4993408;28;96840;-27
2023/08/19 08:11:52;;;;;;;16.17;5.05;;;;;;;24.25;92.21;101342.97;4993772;28;99243;-27
2023/08/19 08:14:17;;;;;;;8.07;4.90;;;;;;;24.51;92.32;101347.50;4993419;28;97805;-26
2023/08/19 08:16:43;;;;;;;6.90;4.82;;;;;;;24.80;90.96;101336.72;4993497;28;96659;-26
2023/08/19 08:19:08;;;;;;;9.02;5.05;;;;;;;25.23;89.40;101339.25;4994342;28;96854;-26
2023/08/19 08:21:34;;;;;;;8.98;5.22;;;;;;;25.62;87.58;101347.59;4993760;28;98495;-26
2023/08/19 08:23:59;;;;;;;8.10;4.88;;;;;;;25.92;86.02;101352.47;4993906;28;98264;-26
2023/08/19 08:26:24;;;;;;;7.22;4.88;;;;;;;26.13;84.55;101349.91;4994541;28;96478;-27
2023/08/19 08:28:50;;;;;;;8.50;4.70;;;;;;;26.30;83.76;101347.00;4997452;28;96763;-27
2023/08/19 08:31:16;;;;;;;6.55;4.30;;;;;;;26.55;83.16;101370.78;4997000;28;97912;-27
2023/08/19 08:33:41;;;;;;;11.85;4.82;;;;;;;26.74;82.34;101376.88;4996002;28;100725;-27
2023/08/19 08:36:07;;;;;;;11.93;4.45;;;;;;;26.87;81.17;101372.41;4997404;28;96610;-28
2023/08/19 08:38:32;;;;;;;8.15;5.20;;;;;;;27.00;80.75;101373.66;4997179;28;96904;-27
2023/08/19 08:41:03;;;;;;;8.52;4.68;;;;;;;27.08;80.03;101384.72;4996551;28;97562;-27
2023/08/19 08:43:33;;;;;;;6.43;4.15;;;;;;;27.26;79.34;101392.72;4995509;28;100813;-27
2023/08/19 08:45:59;;;;;;;9.00;4.85;;;;;;;27.28;79.48;101390.59;4995882;28;96480;-27
2023/08/19 08:48:29;;;;;;;8.30;4.20;;;;;;;27.24;79.96;101400.38;4995642;28;96571;-27
2023/08/19 08:50:55;;;;;;;7.00;3.80;;;;;;;26.97;79.39;101402.72;4995327;28;100925;-28
2023/08/19 08:53:21;;;;;;;6.75;3.63;;;;;;;26.69;80.08;101402.44;4995175;28;101210;-26
2023/08/19 08:55:47;;;;;;;6.72;3.78;;;;;;;26.49;79.94;101407.63;4997042;28;96550;-27
2023/08/19 08:58:12;;;;;;;5.07;2.72;;;;;;;26.37;80.83;101414.66;4996790;28;96784;-26
2023/08/19 09:00:38;;;;;;;5.97;3.90;;;;;;;26.18;80.44;101407.69;4996260;28;98997;-27
2023/08/19 09:03:06;;;;;;;6.25;3.20;;;;;;;26.19;81.52;101426.06;4993339;28;101327;-28
2023/08/19 09:05:35;;;;;;;5.63;3.15;;;;;;;26.07;80.63;101428.38;4995259;28;96935;-30
2023/08/19 09:08:03;;;;;;;4.88;2.45;;;;;;;25.93;81.31;101429.16;4994973;28;96918;-27
2023/08/19 09:10:33;;;;;;;3.00;2.10;;;;;;;25.87;79.50;101443.78;4994674;28;100948;-26
2023/08/19 09:12:59;;;;;;;4.43;2.22;;;;;;;25.78;80.12;101446.53;4995065;28;101933;-26
2023/08/19 09:15:28;;;;;;;4.20;2.38;;;;;;;25.68;80.51;101447.81;4993367;28;96830;-27
2023/08/19 09:17:56;;;;;;;4.55;2.15;;;;;;;25.66;80.19;101461.00;4994001;28;97175;-27
2023/08/19 09:20:22;;;;;;;3.17;2.08;;;;;;;25.59;80.13;101466.38;4992353;28;101333;-32
2023/08/19 09:22:49;;;;;;;2.97;1.77;;;;;;;25.58;79.53;101487.72;4994337;28;98395;-28
2023/08/19 09:25:14;;;;;;;2.10;1.55;;;;;;;25.72;77.80;101488.91;4991772;28;96859;-28
2023/08/19 09:27:40;;;;;;;1.92;1.35;;;;;;;25.97;76.73;101478.59;4992509;28;97106;-28
2023/08/19 09:30:06;;;;;;;4.07;1.73;;;;;;;26.13;76.26;101488.75;4992250;28;97918;-27
2023/08/19 09:32:36;;;;;;;3.13;1.70;;;;;;;26.11;75.60;101506.66;4992155;28;101892;-27
2023/08/19 09:35:08;;;;;;;3.70;1.65;;;;;;;26.08;74.64;101496.78;4994057;28;97122;-27
2023/08/19 09:37:35;;;;;;;2.67;1.73;;;;;;;25.93;74.94;101493.88;4992273;28;96951;-27
2023/08/19 09:40:07;;;;;;;2.47;1.52;;;;;;;26.13;75.07;101510.13;4991534;28;101693;-26
2023/08/19 09:42:32;;;;;;;3.20;1.90;;;;;;;26.17;74.24;101512.34;4994354;28;100791;-27
2023/08/19 09:44:58;;;;;;;2.75;1.65;;;;;;;26.28;74.07;101509.16;4996419;28;96455;-27
2023/08/19 09:47:23;;;;;;;2.70;1.45;;;;;;;26.25;74.04;101500.34;4996089;28;96737;-26
2023/08/19 09:49:52;;;;;;;3.78;1.83;;;;;;;26.39;73.01;101505.13;4995791;28;98924;-27
2023/08/19 09:52:18;;;;;;;3.60;1.70;;;;;;;26.69;72.39;101516.41;4994126;28;101008;-27
2023/08/19 09:54:54;;;;;;;2.67;1.58;;;;;;;26.65;72.58;101513.16;4995721;28;96485;-26
2023/08/19 09:57:35;;;;;;;3.80;1.58;;;;;;;26.53;71.98;101505.34;4994751;28;96804;-26
2023/08/19 10:00:04;;;;;;;3.90;1.90;;;;;;;26.38;71.86;101520.03;4995637;28;99422;-27
2023/08/19 10:02:29;;;;;;;3.67;1.65;;;;;;;26.18;73.01;101525.19;4993670;28;99719;-32
2023/08/19 10:04:56;;;;;;;2.28;1.63;;;;;;;25.96;72.68;101543.50;4993655;28;96973;-27
2023/08/19 10:07:25;;;;;;;3.58;1.95;;;;;;;25.86;74.68;101545.59;4992056;28;97273;-27
2023/08/19 10:09:53;;;;;;;3.78;1.83;;;;;;;25.71;74.69;101562.09;4991395;28;100937;-32
2023/08/19 10:12:20;;;;;;;3.50;1.77;;;;;;;25.54;75.30;101558.47;4975618;28;101291;-28
2023/08/19 10:14:51;;;;;;;4.68;2.00;;;;;;;25.50;75.96;101559.00;4991372;28;96801;-27
2023/08/19 10:17:19;;;;;;;3.33;2.20;;;;;;;25.52;76.32;101570.78;4992989;28;97249;-26
2023/08/19 10:19:54;;;;;;;4.32;2.20;;;;;;;25.52;76.24;101563.31;4994764;28;99274;-26
2023/08/19 10:22:20;;;;;;;6.50;2.60;;;;;;;25.65;76.72;101568.34;4993825;28;101104;-26
2023/08/19 10:24:50;;;;;;;4.53;2.13;;;;;;;25.84;76.31;101573.50;4994325;28;96650;-26
2023/08/19 10:27:20;;;;;;;5.60;2.25;;;;;;;25.92;75.70;101586.53;4994179;28;96775;-26
2023/08/19 10:29:46;;;;;;;3.03;1.85;;;;;;;25.84;75.96;101581.84;4993490;28;98937;-27
2023/08/19 10:32:31;;;;;;;4.35;2.08;;;;;;;25.90;75.60;101562.78;4993885;28;98857;-26
2023/08/19 10:35:08;;;;;;;3.80;2.40;;;;;;;25.93;74.29;101554.94;4995369;28;96549;-28
2023/08/19 10:37:35;;;;;;;4.38;2.22;;;;;;;25.90;74.81;101582.22;4994204;28;96862;-26
2023/08/19 10:40:11;;;;;;;4.85;2.40;;;;;;;25.81;75.32;101581.31;4993545;28;101310;-27
2023/08/19 10:42:36;;;;;;;3.58;2.50;;;;;;;25.85;74.92;101588.25;4995023;28;97892;-26
2023/08/19 10:45:03;;;;;;;6.90;2.28;;;;;;;25.81;73.76;101573.88;4994639;28;96633;-27
2023/08/19 10:47:29;;;;;;;4.32;2.30;;;;;;;25.72;74.18;101574.03;4993886;28;96814;-26
2023/08/19 10:50:09;;;;;;;4.30;2.42;;;;;;;25.64;74.54;101588.81;4994825;28;97652;-26
2023/08/19 10:52:40;;;;;;;5.63;2.58;;;;;;;25.62;74.53;101591.78;4990446;28;100864;-27
2023/08/19 10:55:06;;;;;;;;;;;;;;;25.56;74.85;101609.13;4994344;28;96662;-27
2023/08/19 10:57:34;;;;;;;2.85;1.83;;;;;;;25.49;74.88;101626.63;4995221;28;96813;-28
2023/08/19 11:00:00;;;;;;;6.07;2.45;;;;;;;25.39;74.69;101624.03;4993549;28;101457;-27
2023/08/19 11:02:27;;;;;;;4.75;2.05;;;;;;;25.59;74.42;101632.88;4993570;28;99245;-27
2023/08/19 11:04:53;;;;;;;2.95;1.75;;;;;;;25.70;73.96;101649.19;4993589;28;96605;-26
2023/08/19 11:07:19;;;;;;;3.92;1.90;;;;;;;25.68;72.68;101658.72;4993254;28;96970;-26
2023/08/19 11:09:49;;;;;;;3.13;1.40;;;;;;;25.79;72.91;101664.78;4992684;28;100873;-26
2023/08/19 11:12:17;;;;;;;2.15;1.02;;;;;;;25.68;72.27;101669.81;4994493;28;98071;-26
2023/08/19 11:14:50;;;;;;;1.42;0.88;;;;;;;25.56;71.74;101652.66;4993049;28;96533;-26
2023/08/19 11:17:18;;;;;;;3.28;1.17;;;;;;;25.45;71.49;101661.31;4993841;28;96818;-26